Airfield :
LOGIN :

Register | Disclaimer

   EN    FR    IT 

 










Legend :    VFR   Marginal VFR   IFR   Intensive IFR   Very Intensive IFR
Visi :
Ceiling :
>= 8 km
>= 3000ft
5 to 8 km
1000 to 3000 ft
1500m to 5 km
500 to 1000 ft
800 to 1500m
200 to 500 ft
< 800m
< 200 ft
Symbols :   Thunderstorms  Fog  Heavy snow  Heavy precipitations  Wind > 20 kt
SIGMETs :     Misc.  Thunderstorms  Icing  Turbulence  Mountain Waves  Volcanic Ashes







- Airport Elevation : 19 ft
- IATA code : BEB
- Download approach charts


EGPL - Benbecula

CURRENT METAR :
  • 230650Z 13005KT 4500 BR FEW003 BKN014 14/14 Q1001

EXPIRED METARs :
  • 230620Z 13004KT 0450 FG OVC002 14/14 Q1001
  • 230550Z 09002KT 9999 BKN030 14/14 Q1001
  • 230520Z 16002KT 9999 BKN030 14/13 Q1001
  • 230450Z 12001KT 9999 BKN030 14/14 Q1001
  • 230420Z 18002KT 9999 BKN030 14/14 Q1001

TAF AMD TAF EGPL
Valid from the 23 at 03:00 until the 23 at 12:00 UTC


230302Z 2303/2312 14008KT 9999 SCT007
TEMPO 2303/2310 6000 -RADZ BKN003
ATIS : +44 1870 604 818
No reported NOTAMs for that airfield.



MET'MAP, your aeronautical weather chart ! - Copyright ORBIFLY December 2007 - Disclaimer

ORBIFLY MET'MAP TEAM :

Programming & Development : Alexandra Zaïnal
Concept & Development : Baudouin d'Aumeries
Co-Development & Prog : Marc-Olivier Méhu
Technical & hardware support : Manuel Goepfert

Contact : metmap@orbifly.com




SOURCES & CREDITS :

   NOAA